createdAt,value
2023-01-10T00:00:03.923Z,2.10
2023-01-10T00:04:08.020Z,1.80
2023-01-10T00:08:10.021Z,1.70
2023-01-10T00:12:22.871Z,1.90
2023-01-10T00:16:23.575Z,2.20
2023-01-10T00:20:26.148Z,2.30
2023-01-10T00:24:26.335Z,2.60
2023-01-10T00:28:26.283Z,2.00
2023-01-10T00:32:26.285Z,2.00
2023-01-10T00:36:28.867Z,2.00
2023-01-10T00:40:28.923Z,2.00
2023-01-10T00:44:26.890Z,2.23
2023-01-10T00:48:27.272Z,2.00
2023-01-10T00:52:29.806Z,1.63
2023-01-10T00:56:30.033Z,1.70
2023-01-10T01:00:30.377Z,1.60
2023-01-10T01:04:34.103Z,1.53
2023-01-10T01:08:37.069Z,1.67
2023-01-10T01:12:37.154Z,1.80
2023-01-10T01:16:37.268Z,1.90
2023-01-10T01:20:37.529Z,2.00
2023-01-10T01:24:40.117Z,2.10
2023-01-10T01:28:40.732Z,1.93
2023-01-10T01:32:41.268Z,2.00
2023-01-10T01:36:41.430Z,2.13
2023-01-10T01:40:45.100Z,2.10
2023-01-10T01:44:45.160Z,2.27
2023-01-10T01:48:47.167Z,2.10
2023-01-10T01:52:48.141Z,2.10
2023-01-10T01:56:56.532Z,2.07
2023-01-10T02:00:58.590Z,2.33
2023-01-10T02:05:05.006Z,2.30
2023-01-10T02:09:15.529Z,2.20
2023-01-10T02:13:22.106Z,2.53
2023-01-10T02:17:22.121Z,2.63
2023-01-10T02:22:13.576Z,2.40
2023-01-10T02:26:50.007Z,2.23
2023-01-10T02:31:47.788Z,2.50
2023-01-10T02:36:22.933Z,2.70
2023-01-10T02:40:31.963Z,2.90
2023-01-10T02:44:40.386Z,2.80
2023-01-10T02:48:40.496Z,3.00
2023-01-10T02:52:43.179Z,3.27
2023-01-10T02:57:18.389Z,3.43
2023-01-10T03:01:28.876Z,3.70
2023-01-10T03:05:44.868Z,2.90
2023-01-10T03:09:59.344Z,2.93
2023-01-10T03:14:04.052Z,2.97
2023-01-10T03:18:11.123Z,2.77
2023-01-10T03:22:14.032Z,3.10
2023-01-10T03:26:20.396Z,2.93
2023-01-10T03:30:31.124Z,2.70
2023-01-10T03:34:31.550Z,3.10
2023-01-10T03:38:44.659Z,3.10
2023-01-10T03:43:09.391Z,3.33
2023-01-10T03:47:15.275Z,3.30
2023-01-10T03:51:17.085Z,2.90
2023-01-10T03:55:23.506Z,3.20
2023-01-10T03:59:30.180Z,3.10
2023-01-10T04:03:30.255Z,3.30
2023-01-10T04:07:30.473Z,3.13
2023-01-10T04:11:30.514Z,3.20
2023-01-10T04:15:33.916Z,3.17
2023-01-10T04:19:34.305Z,3.00
2023-01-10T04:23:34.434Z,3.33
2023-01-10T04:27:34.461Z,3.17
2023-01-10T04:31:37.580Z,3.40
2023-01-10T04:35:37.791Z,3.57
2023-01-10T04:39:37.956Z,3.40
2023-01-10T04:43:38.086Z,3.40
2023-01-10T04:47:40.753Z,3.27
2023-01-10T04:51:41.090Z,3.40
2023-01-10T04:55:41.103Z,3.20
2023-01-10T04:59:41.221Z,3.40
2023-01-10T05:03:44.122Z,3.50
2023-01-10T05:07:44.732Z,4.00
2023-01-10T05:11:44.868Z,3.50
2023-01-10T05:15:44.919Z,3.13
2023-01-10T05:19:47.606Z,3.27
2023-01-10T05:23:47.725Z,3.10
2023-01-10T05:27:47.798Z,3.33
2023-01-10T05:31:47.880Z,3.53
2023-01-10T05:35:50.662Z,3.80
2023-01-10T05:39:50.904Z,3.90
2023-01-10T05:43:50.929Z,3.90
2023-01-10T05:47:51.058Z,5.43
2023-01-10T05:51:53.664Z,5.27
2023-01-10T05:55:59.463Z,4.87
2023-01-10T05:59:59.635Z,4.73
2023-01-10T06:04:00.887Z,3.90
2023-01-10T06:08:03.624Z,4.10
2023-01-10T06:12:03.764Z,4.60
2023-01-10T06:16:04.075Z,4.10
2023-01-10T06:20:05.594Z,4.20
2023-01-10T06:24:09.667Z,3.77
2023-01-10T06:28:10.365Z,4.23
2023-01-10T06:32:10.396Z,4.77
2023-01-10T06:36:11.757Z,5.00
2023-01-10T06:40:15.449Z,4.60
2023-01-10T06:44:15.531Z,5.20
2023-01-10T06:48:15.590Z,4.70
2023-01-10T06:52:15.805Z,5.10
2023-01-10T06:56:18.556Z,3.90
2023-01-10T07:00:20.549Z,4.60
2023-01-10T07:04:20.552Z,3.90
2023-01-10T07:08:20.630Z,3.90
2023-01-10T07:12:23.345Z,4.63
2023-01-10T07:16:23.575Z,4.60
2023-01-10T07:20:23.767Z,4.80
2023-01-10T07:24:23.953Z,5.60
2023-01-10T07:28:26.995Z,3.77
2023-01-10T07:32:27.298Z,4.17
2023-01-10T07:36:27.469Z,4.40
2023-01-10T07:40:27.963Z,4.80
2023-01-10T07:44:30.572Z,4.97
2023-01-10T07:48:30.851Z,5.03
2023-01-10T07:52:30.886Z,4.97
2023-01-10T07:56:31.011Z,5.00
2023-01-10T08:00:33.677Z,4.63
2023-01-10T08:04:33.850Z,4.77
2023-01-10T08:08:35.969Z,4.57
2023-01-10T08:12:36.463Z,6.07
2023-01-10T08:16:39.152Z,4.70
2023-01-10T08:20:39.315Z,4.80
2023-01-10T08:24:39.508Z,5.33
2023-01-10T08:28:39.626Z,4.60
2023-01-10T08:32:42.294Z,4.00
2023-01-10T08:36:42.346Z,4.80
2023-01-10T08:40:42.389Z,4.80
2023-01-10T08:44:42.547Z,4.17
2023-01-10T08:48:45.239Z,3.60
2023-01-10T08:52:45.279Z,3.50
2023-01-10T08:56:45.280Z,3.70
2023-01-10T09:00:45.364Z,3.90
2023-01-10T09:04:48.033Z,3.50
2023-01-10T09:08:48.275Z,3.67
2023-01-10T09:12:57.437Z,3.67
2023-01-10T09:16:57.692Z,2.97
2023-01-10T09:21:00.582Z,4.57
2023-01-10T09:25:00.679Z,3.93
2023-01-10T09:29:00.715Z,3.60
2023-01-10T09:33:02.177Z,3.00
2023-01-10T09:37:04.855Z,3.73
2023-01-10T09:41:31.246Z,3.10
2023-01-10T09:45:47.342Z,4.00
2023-01-10T09:49:58.886Z,3.33
2023-01-10T09:54:12.482Z,3.67
2023-01-10T09:58:18.479Z,3.03
2023-01-10T10:02:29.441Z,3.43
2023-01-10T10:06:29.540Z,3.93
2023-01-10T10:10:43.505Z,4.40
2023-01-10T10:15:10.530Z,2.93
2023-01-10T10:19:26.020Z,2.80
2023-01-10T10:24:13.608Z,3.50
2023-01-10T10:28:46.633Z,3.67
2023-01-10T10:33:12.312Z,2.97
2023-01-10T10:37:19.724Z,2.83
2023-01-10T10:41:33.162Z,2.60
2023-01-10T10:45:44.405Z,2.60
2023-01-10T10:49:52.294Z,2.60
2023-01-10T10:53:52.374Z,3.20
2023-01-10T10:58:00.474Z,2.73
2023-01-10T11:02:04.015Z,2.50
2023-01-10T11:06:04.918Z,3.07
2023-01-10T11:10:21.914Z,3.37
2023-01-10T11:14:46.907Z,3.80
2023-01-10T11:19:10.745Z,2.77
2023-01-10T11:23:10.877Z,2.93
2023-01-10T11:27:21.775Z,3.40
2023-01-10T11:31:30.873Z,3.60
2023-01-10T11:35:38.127Z,3.20
2023-01-10T11:39:38.396Z,3.00
2023-01-10T11:43:41.829Z,3.47
2023-01-10T11:47:45.922Z,2.90
2023-01-10T11:51:54.462Z,3.27
2023-01-10T11:55:55.691Z,3.20
2023-01-10T11:59:59.166Z,3.93
2023-01-10T12:04:00.732Z,4.27
2023-01-10T12:08:10.695Z,3.43
2023-01-10T12:12:32.563Z,3.20
2023-01-10T12:16:34.698Z,2.60
2023-01-10T12:20:47.777Z,2.33
2023-01-10T12:24:55.898Z,2.37
2023-01-10T12:29:01.772Z,2.03
2023-01-10T12:33:07.280Z,2.50
2023-01-10T12:37:19.892Z,2.23
2023-01-10T12:41:45.256Z,2.40
2023-01-10T12:45:55.967Z,2.57
2023-01-10T12:50:02.097Z,2.77
2023-01-10T12:54:08.275Z,2.17
2023-01-10T12:58:23.198Z,2.10
2023-01-10T13:02:30.559Z,2.60
2023-01-10T13:06:36.435Z,2.90
2023-01-10T13:10:40.333Z,3.70
2023-01-10T13:14:54.444Z,2.57
2023-01-10T13:19:09.112Z,2.40
2023-01-10T13:23:30.556Z,3.00
2023-01-10T13:27:35.939Z,2.30
2023-01-10T13:31:38.853Z,1.67
2023-01-10T13:35:45.729Z,2.10
2023-01-10T13:39:57.539Z,1.80
2023-01-10T13:44:12.145Z,2.83
2023-01-10T13:48:31.335Z,2.07
2023-01-10T13:52:36.115Z,2.57
2023-01-10T13:56:40.899Z,2.37
2023-01-10T14:01:06.789Z,3.57
2023-01-10T14:05:19.076Z,3.80
2023-01-10T14:09:44.822Z,2.43
2023-01-10T14:13:54.042Z,1.93
2023-01-10T14:18:03.202Z,2.20
2023-01-10T14:22:07.265Z,2.90
2023-01-10T14:26:09.311Z,4.13
2023-01-10T14:30:18.961Z,3.10
2023-01-10T14:34:26.561Z,3.50
2023-01-10T14:38:33.745Z,2.43
2023-01-10T14:42:34.356Z,4.47
2023-01-10T14:46:47.152Z,2.93
2023-01-10T14:50:47.467Z,3.20
2023-01-10T14:54:51.444Z,3.30
2023-01-10T14:58:51.635Z,3.30
2023-01-10T15:02:53.440Z,3.23
2023-01-10T15:07:00.139Z,3.43
2023-01-10T15:11:08.164Z,5.00
2023-01-10T15:15:16.202Z,5.00
2023-01-10T15:19:22.727Z,5.17
2023-01-10T15:23:27.185Z,4.67
2023-01-10T15:27:31.791Z,3.80
2023-01-10T15:31:33.616Z,4.50
2023-01-10T15:35:36.897Z,6.10
2023-01-10T15:39:42.127Z,3.17
2023-01-10T15:43:45.266Z,5.73
2023-01-10T15:48:03.225Z,3.50
2023-01-10T15:52:03.769Z,2.50
2023-01-10T15:56:19.423Z,2.23
2023-01-10T16:00:23.318Z,2.90
2023-01-10T16:04:23.758Z,2.20
2023-01-10T16:08:29.169Z,2.87
2023-01-10T16:12:48.959Z,3.47
2023-01-10T16:16:51.599Z,2.40
2023-01-10T16:20:54.999Z,2.87
2023-01-10T16:24:55.247Z,2.87
2023-01-10T16:28:55.527Z,2.80
2023-01-10T16:33:00.057Z,3.13
2023-01-10T16:37:00.225Z,2.87
2023-01-10T16:41:23.059Z,3.10
2023-01-10T16:45:23.128Z,3.93
2023-01-10T16:49:26.419Z,4.67
2023-01-10T16:53:26.727Z,5.70
2023-01-10T16:57:26.957Z,3.70
2023-01-10T17:01:32.207Z,3.27
2023-01-10T17:05:38.435Z,3.07
2023-01-10T17:09:39.729Z,3.40
2023-01-10T17:13:45.530Z,4.50
2023-01-10T17:17:46.839Z,3.20
2023-01-10T17:21:49.608Z,3.80
2023-01-10T17:25:50.750Z,3.73
2023-01-10T17:29:51.724Z,2.77
2023-01-10T17:33:51.913Z,5.10
2023-01-10T17:37:56.833Z,4.77
2023-01-10T17:41:57.887Z,3.47
2023-01-10T17:46:00.181Z,3.50
2023-01-10T17:50:00.539Z,3.63
2023-01-10T17:54:03.405Z,4.40
2023-01-10T17:58:03.804Z,8.33
2023-01-10T18:02:04.071Z,11.67
2023-01-10T18:06:07.670Z,3.90
2023-01-10T18:10:12.410Z,4.10
2023-01-10T18:14:27.678Z,5.07
2023-01-10T18:18:28.110Z,5.23
2023-01-10T18:22:43.598Z,5.03
2023-01-10T18:26:46.580Z,6.23
2023-01-10T18:30:46.810Z,7.23
2023-01-10T18:34:47.242Z,8.60
2023-01-10T18:38:48.775Z,7.47
2023-01-10T18:42:55.083Z,9.03
2023-01-10T18:46:55.218Z,6.53
2023-01-10T18:50:56.572Z,5.87
2023-01-10T18:54:57.555Z,8.57
2023-01-10T18:59:01.791Z,4.83
2023-01-10T19:03:02.430Z,7.57
2023-01-10T19:07:02.525Z,6.40
2023-01-10T19:11:13.315Z,7.27
2023-01-10T19:15:17.157Z,7.00
2023-01-10T19:19:17.300Z,7.23
2023-01-10T19:23:17.446Z,6.33
2023-01-10T19:27:18.424Z,6.53
2023-01-10T19:31:24.228Z,6.20
2023-01-10T19:35:24.391Z,5.70
2023-01-10T19:39:24.676Z,6.90
2023-01-10T19:43:26.012Z,7.00
2023-01-10T19:47:29.038Z,5.93
2023-01-10T19:51:29.116Z,6.30
2023-01-10T19:55:29.805Z,5.47
2023-01-10T19:59:31.727Z,8.87
2023-01-10T20:03:34.763Z,8.20
2023-01-10T20:07:34.879Z,5.57
2023-01-10T20:11:41.917Z,6.60
2023-01-10T20:15:42.004Z,5.47
2023-01-10T20:19:44.690Z,8.67
2023-01-10T20:23:45.801Z,5.53
2023-01-10T20:27:46.919Z,7.00
2023-01-10T20:31:52.702Z,6.47
2023-01-10T20:36:04.627Z,4.63
2023-01-10T20:40:05.292Z,4.33
2023-01-10T20:44:05.713Z,4.50
2023-01-10T20:48:05.786Z,3.77
2023-01-10T20:52:08.457Z,3.93
2023-01-10T20:56:12.399Z,3.53
2023-01-10T21:00:15.766Z,4.07
2023-01-10T21:04:15.941Z,4.57
2023-01-10T21:08:18.637Z,4.93
2023-01-10T21:12:23.237Z,4.87
2023-01-10T21:16:25.619Z,5.23
2023-01-10T21:20:28.597Z,6.60
2023-01-10T21:24:31.544Z,6.10
2023-01-10T21:28:32.429Z,5.43
2023-01-10T21:32:32.642Z,5.47
2023-01-10T21:36:32.719Z,4.10
2023-01-10T21:40:37.056Z,4.47
2023-01-10T21:44:37.305Z,4.47
2023-01-10T21:48:37.405Z,4.70
2023-01-10T21:52:37.831Z,5.37
2023-01-10T21:56:40.534Z,4.10
2023-01-10T22:00:40.774Z,4.33
2023-01-10T22:04:41.039Z,3.50
2023-01-10T22:08:41.084Z,3.77
2023-01-10T22:12:43.730Z,3.73
2023-01-10T22:16:43.846Z,3.70
2023-01-10T22:20:47.629Z,4.07
2023-01-10T22:24:48.760Z,3.83
2023-01-10T22:28:51.539Z,4.27
2023-01-10T22:32:51.698Z,4.07
2023-01-10T22:36:51.900Z,4.33
2023-01-10T22:40:51.951Z,4.10
2023-01-10T22:44:54.582Z,3.97
2023-01-10T22:48:55.567Z,3.90
2023-01-10T22:52:55.696Z,3.60
2023-01-10T22:56:55.775Z,3.40
2023-01-10T23:00:59.156Z,3.20
2023-01-10T23:04:59.231Z,3.13
2023-01-10T23:08:59.289Z,3.13
2023-01-10T23:13:01.101Z,3.20
2023-01-10T23:17:03.740Z,3.23
2023-01-10T23:21:05.110Z,3.27
2023-01-10T23:25:05.521Z,4.00
2023-01-10T23:29:05.587Z,3.33
2023-01-10T23:33:08.393Z,3.70
2023-01-10T23:37:08.774Z,4.17
2023-01-10T23:41:09.706Z,3.47
2023-01-10T23:45:12.262Z,4.37
2023-01-10T23:49:15.093Z,3.83
2023-01-10T23:53:15.224Z,3.40
2023-01-10T23:57:15.308Z,3.03
